KTPH/TPH METAR and TAF weather

Enter ICAO airport designator
Station Type Date Time Source
KTPH METAR 2019/02/23 22:56 UTC NOAA

KTPH 232256Z AUTO 34007KT 10SM CLR 06/M12 A3017 RMK AO2 SLP239 T00611117 $


Station Type Date Time Source
KTPH Decoded METAR 2019/02/23 22:56 UTC NOAA

TONOPAH AIRPORT, NV, United States (KTPH) 38-02N 117-05W 1652M
Feb 23, 2019 - 05:56 PM EST / 2019.02.23 2256 UTC
Wind: from the NNW (340 degrees) at 8 MPH (7 KT):0
Visibility: 10 mile(s):0
Sky conditions: clear
Temperature: 43.0 F (6.1 C)
Dew Point: 10.9 F (-11.7 C)
Relative Humidity: 26%
Pressure (altimeter): 30.17 in. Hg (1021 hPa)
ob: KTPH 232256Z AUTO 34007KT 10SM CLR 06/M12 A3017 RMK AO2 SLP239 T00611117
cycle: 23

Station Type Date Time Source
KTPH TAF 2019/02/23 18:22 UTC NOAA

TAF KTPH 231720Z 2318/2418 36008KT P6SM SCT250
FM232300 VRB06KT P6SM SCT100 BKN150
FM240500 36007KT P6SM BKN070


Example: see airport list